createdAt,value
2019-04-25T00:01:24.150Z,17.43
2019-04-25T00:03:54.030Z,17.23
2019-04-25T00:06:25.340Z,23.10
2019-04-25T00:08:55.009Z,24.17
2019-04-25T00:11:24.563Z,18.33
2019-04-25T00:13:54.371Z,18.83
2019-04-25T00:16:25.643Z,16.67
2019-04-25T00:18:55.303Z,17.07
2019-04-25T00:21:42.507Z,23.63
2019-04-25T00:24:29.243Z,26.30
2019-04-25T00:26:58.841Z,25.27
2019-04-25T00:29:28.404Z,23.10
2019-04-25T00:31:58.040Z,20.27
2019-04-25T00:34:27.789Z,19.50
2019-04-25T00:36:58.752Z,23.67
2019-04-25T00:39:28.425Z,23.17
2019-04-25T00:41:57.983Z,32.37
2019-04-25T00:44:27.480Z,22.50
2019-04-25T00:46:57.008Z,21.80
2019-04-25T00:49:26.580Z,22.40
2019-04-25T00:51:56.174Z,20.90
2019-04-25T00:54:25.596Z,23.77
2019-04-25T00:56:55.089Z,17.73
2019-04-25T00:59:35.344Z,21.83
2019-04-25T01:02:07.650Z,19.53
2019-04-25T01:04:37.526Z,19.23
2019-04-25T01:07:06.955Z,23.10
2019-04-25T01:09:36.440Z,23.93
2019-04-25T01:12:09.417Z,26.73
2019-04-25T01:14:38.905Z,24.23
2019-04-25T01:17:09.538Z,22.83
2019-04-25T01:19:38.997Z,24.90
2019-04-25T01:22:09.046Z,22.87
2019-04-25T01:24:38.689Z,21.67
2019-04-25T01:27:08.943Z,24.70
2019-04-25T01:29:38.446Z,23.03
2019-04-25T01:32:09.679Z,24.73
2019-04-25T01:34:47.055Z,19.83
2019-04-25T01:37:18.404Z,23.00
2019-04-25T01:39:54.946Z,23.33
2019-04-25T01:42:31.543Z,19.03
2019-04-25T01:45:01.179Z,27.90
2019-04-25T01:47:30.833Z,20.20
2019-04-25T01:50:00.394Z,20.50
2019-04-25T01:52:29.821Z,19.27
2019-04-25T01:54:59.344Z,21.40
2019-04-25T01:57:28.788Z,19.17
2019-04-25T01:59:58.359Z,17.67
2019-04-25T02:02:29.586Z,17.20
2019-04-25T02:05:00.218Z,21.70
2019-04-25T02:07:30.013Z,18.87
2019-04-25T02:09:59.502Z,20.63
2019-04-25T02:12:30.629Z,18.93
2019-04-25T02:15:00.244Z,23.70
2019-04-25T02:17:29.875Z,24.57
2019-04-25T02:19:59.782Z,18.33
2019-04-25T02:22:29.471Z,26.83
2019-04-25T02:24:59.166Z,17.93
2019-04-25T02:27:28.710Z,24.03
2019-04-25T02:29:58.544Z,16.03
2019-04-25T02:32:28.212Z,24.07
2019-04-25T02:35:00.926Z,23.40
2019-04-25T02:37:28.980Z,18.73
2019-04-25T02:40:00.510Z,20.43
2019-04-25T02:42:29.742Z,24.60
2019-04-25T02:45:17.137Z,23.23
2019-04-25T02:48:01.429Z,21.47
2019-04-25T02:50:35.602Z,21.87
2019-04-25T02:53:14.168Z,22.27
2019-04-25T02:55:44.663Z,19.80
2019-04-25T02:58:14.323Z,17.47
2019-04-25T03:00:55.090Z,23.83
2019-04-25T03:03:16.207Z,21.27
2019-04-25T03:05:47.808Z,21.77
2019-04-25T03:08:17.124Z,19.20
2019-04-25T03:10:46.709Z,19.20
2019-04-25T03:13:16.172Z,21.57
2019-04-25T03:15:45.729Z,19.67
2019-04-25T03:18:16.918Z,24.30
2019-04-25T03:20:51.175Z,30.57
2019-04-25T03:23:35.250Z,47.17
2019-04-25T03:26:06.252Z,34.17
2019-04-25T03:28:37.309Z,38.57
2019-04-25T03:31:15.264Z,22.33
2019-04-25T03:33:39.743Z,20.70
2019-04-25T03:36:09.422Z,17.00
2019-04-25T03:38:38.950Z,21.53
2019-04-25T03:41:08.696Z,25.30
2019-04-25T03:43:38.455Z,19.10
2019-04-25T03:46:08.286Z,24.33
2019-04-25T03:48:37.897Z,20.07
2019-04-25T03:51:08.356Z,26.07
2019-04-25T03:53:38.000Z,25.00
2019-04-25T03:56:08.612Z,22.33
2019-04-25T03:58:38.440Z,20.73
2019-04-25T04:01:09.296Z,22.20
2019-04-25T04:03:39.313Z,24.37
2019-04-25T04:06:09.801Z,26.83
2019-04-25T04:08:39.396Z,20.97
2019-04-25T04:11:10.050Z,20.73
2019-04-25T04:13:39.709Z,20.10
2019-04-25T04:16:09.204Z,28.33
2019-04-25T04:18:40.356Z,25.53
2019-04-25T04:21:11.486Z,16.00
2019-04-25T04:24:04.010Z,24.20
2019-04-25T04:26:33.752Z,24.37
2019-04-25T04:29:04.679Z,23.17
2019-04-25T04:31:34.277Z,31.10
2019-04-25T04:34:03.973Z,22.20
2019-04-25T04:36:33.868Z,26.67
2019-04-25T04:39:04.167Z,25.53
2019-04-25T04:41:34.050Z,26.10
2019-04-25T04:44:04.152Z,21.10
2019-04-25T04:46:34.829Z,26.93
2019-04-25T04:49:04.327Z,23.10
2019-04-25T04:51:33.915Z,20.60
2019-04-25T04:54:03.549Z,24.27
2019-04-25T04:56:34.212Z,25.47
2019-04-25T04:59:03.863Z,20.60
2019-04-25T05:01:34.916Z,27.60
2019-04-25T05:06:56.994Z,32.63
2019-04-25T05:12:44.683Z,29.17
2019-04-25T05:15:33.363Z,34.50
2019-04-25T05:17:50.672Z,33.87
2019-04-25T05:20:50.980Z,32.67
2019-04-25T05:22:58.784Z,30.23
2019-04-25T05:25:28.457Z,32.73
2019-04-25T05:28:03.056Z,32.17
2019-04-25T05:30:57.132Z,30.23
2019-04-25T05:33:30.510Z,34.70
2019-04-25T05:36:06.912Z,34.60
2019-04-25T05:39:04.045Z,33.43
2019-04-25T05:41:25.925Z,30.80
2019-04-25T05:43:55.379Z,39.90
2019-04-25T05:46:25.468Z,30.83
2019-04-25T05:48:57.202Z,44.80
2019-04-25T05:51:26.934Z,26.97
2019-04-25T05:53:57.806Z,32.37
2019-04-25T05:56:28.297Z,32.63
2019-04-25T05:58:58.018Z,33.53
2019-04-25T06:01:29.218Z,29.53
2019-04-25T06:03:58.881Z,31.90
2019-04-25T06:06:28.531Z,34.33
2019-04-25T06:09:21.809Z,30.03
2019-04-25T06:12:05.320Z,35.03
2019-04-25T06:14:39.190Z,29.20
2019-04-25T06:17:10.487Z,34.20
2019-04-25T06:19:50.568Z,32.73
2019-04-25T06:22:24.354Z,28.80
2019-04-25T06:24:54.844Z,29.43
2019-04-25T06:27:27.037Z,26.20
2019-04-25T06:30:00.840Z,30.30
2019-04-25T06:32:29.879Z,27.13
2019-04-25T06:34:59.620Z,29.00
2019-04-25T06:37:29.195Z,30.13
2019-04-25T06:39:58.791Z,27.83
2019-04-25T06:42:28.282Z,37.03
2019-04-25T06:45:08.176Z,27.07
2019-04-25T06:47:39.387Z,31.40
2019-04-25T06:50:10.536Z,35.27
2019-04-25T06:52:40.229Z,28.57
2019-04-25T06:55:09.921Z,36.20
2019-04-25T06:57:39.561Z,35.37
2019-04-25T07:00:11.793Z,33.77
2019-04-25T07:02:41.376Z,27.93
2019-04-25T07:05:24.512Z,26.33
2019-04-25T07:07:45.253Z,35.17
2019-04-25T07:11:08.985Z,31.07
2019-04-25T07:12:56.054Z,30.90
2019-04-25T07:15:26.978Z,28.43
2019-04-25T07:17:57.236Z,34.00
2019-04-25T07:20:27.461Z,30.13
2019-04-25T07:23:04.410Z,32.47
2019-04-25T07:25:53.716Z,33.53
2019-04-25T07:28:36.009Z,28.73
2019-04-25T07:31:20.490Z,43.07
2019-04-25T07:33:56.026Z,34.53
2019-04-25T07:36:25.779Z,37.50
2019-04-25T07:39:05.863Z,34.43
2019-04-25T07:41:28.055Z,29.40
2019-04-25T07:43:57.592Z,36.33
2019-04-25T07:46:27.806Z,34.93
2019-04-25T07:48:57.335Z,34.93
2019-04-25T07:51:26.907Z,39.43
2019-04-25T07:53:56.340Z,32.17
2019-04-25T07:56:25.917Z,41.80
2019-04-25T07:58:55.521Z,37.40
2019-04-25T08:01:25.023Z,34.67
2019-04-25T08:03:54.525Z,35.00
2019-04-25T08:06:24.307Z,33.10
2019-04-25T08:08:54.573Z,32.93
2019-04-25T08:11:24.715Z,36.37
2019-04-25T08:14:14.286Z,34.43
2019-04-25T08:16:47.000Z,32.53
2019-04-25T08:19:16.560Z,35.33
2019-04-25T08:21:46.632Z,40.93
2019-04-25T08:24:16.389Z,39.07
2019-04-25T08:26:45.959Z,31.83
2019-04-25T08:29:15.492Z,37.20
2019-04-25T08:31:45.369Z,33.37
2019-04-25T08:34:16.138Z,40.27
2019-04-25T08:36:45.835Z,39.00
2019-04-25T08:39:15.407Z,50.47
2019-04-25T08:41:45.686Z,35.67
2019-04-25T08:44:16.329Z,42.57
2019-04-25T08:46:48.504Z,36.27
2019-04-25T08:49:18.634Z,39.63
2019-04-25T08:51:50.932Z,31.30
2019-04-25T08:54:31.036Z,36.10
2019-04-25T08:57:04.364Z,33.40
2019-04-25T08:59:50.482Z,33.27
2019-04-25T09:02:34.934Z,30.57
2019-04-25T09:05:24.916Z,29.73
2019-04-25T09:07:54.507Z,29.47
2019-04-25T09:10:24.055Z,36.93
2019-04-25T09:12:53.907Z,32.97
2019-04-25T09:15:24.194Z,32.17
2019-04-25T09:17:54.678Z,30.37
2019-04-25T09:20:24.639Z,34.00
2019-04-25T09:22:54.472Z,37.77
2019-04-25T09:25:24.051Z,29.43
2019-04-25T09:27:54.368Z,29.57
2019-04-25T09:30:24.629Z,33.37
2019-04-25T09:32:54.166Z,40.53
2019-04-25T09:35:23.800Z,31.07
2019-04-25T09:37:53.719Z,29.50
2019-04-25T09:40:24.115Z,43.20
2019-04-25T09:42:55.155Z,32.30
2019-04-25T09:45:43.552Z,26.93
2019-04-25T09:48:14.573Z,30.47
2019-04-25T09:50:46.384Z,33.53
2019-04-25T09:53:23.534Z,37.43
2019-04-25T09:56:06.439Z,38.30
2019-04-25T09:58:40.604Z,34.27
2019-04-25T10:01:13.889Z,36.83
2019-04-25T10:03:45.650Z,36.97
2019-04-25T10:06:17.933Z,31.43
2019-04-25T10:08:48.767Z,31.03
2019-04-25T10:11:18.456Z,33.70
2019-04-25T10:13:50.929Z,33.47
2019-04-25T10:16:20.538Z,39.77
2019-04-25T10:18:50.193Z,36.57
2019-04-25T10:21:19.996Z,31.30
2019-04-25T10:23:51.217Z,28.67
2019-04-25T10:26:22.306Z,27.93
2019-04-25T10:28:51.909Z,29.47
2019-04-25T10:31:23.764Z,34.27
2019-04-25T10:33:54.590Z,35.20
2019-04-25T10:36:25.414Z,37.10
2019-04-25T10:39:07.209Z,36.73
2019-04-25T10:41:26.368Z,34.63
2019-04-25T10:43:57.078Z,44.33
2019-04-25T10:46:26.714Z,26.90
2019-04-25T10:48:56.299Z,28.47
2019-04-25T10:51:26.074Z,38.23
2019-04-25T10:53:55.508Z,39.60
2019-04-25T10:56:25.096Z,37.27
2019-04-25T10:58:55.010Z,46.90
2019-04-25T11:01:24.990Z,35.73
2019-04-25T11:03:56.237Z,37.40
2019-04-25T11:06:30.709Z,36.50
2019-04-25T11:09:00.397Z,32.50
2019-04-25T11:11:34.890Z,35.20
2019-04-25T11:14:07.378Z,49.10
2019-04-25T11:16:35.943Z,42.47
2019-04-25T11:19:05.710Z,42.73
2019-04-25T11:21:35.509Z,53.20
2019-04-25T11:24:05.374Z,42.57
2019-04-25T11:26:34.935Z,34.97
2019-04-25T11:29:04.598Z,44.47
2019-04-25T11:31:35.916Z,47.33
2019-04-25T11:34:05.481Z,38.17
2019-04-25T11:36:35.063Z,48.70
2019-04-25T11:39:11.566Z,48.73
2019-04-25T11:41:41.136Z,48.63
2019-04-25T11:44:10.631Z,37.80
2019-04-25T11:46:40.231Z,50.17
2019-04-25T11:49:10.293Z,41.83
2019-04-25T11:51:40.089Z,61.33
2019-04-25T11:54:09.592Z,47.23
2019-04-25T11:56:39.252Z,43.47
2019-04-25T11:59:08.989Z,38.83
2019-04-25T12:01:38.629Z,38.40
2019-04-25T12:04:08.307Z,50.17
2019-04-25T12:06:37.896Z,44.00
2019-04-25T12:09:07.725Z,40.63
2019-04-25T12:11:38.858Z,44.13
2019-04-25T12:14:09.579Z,45.13
2019-04-25T12:16:39.107Z,40.57
2019-04-25T12:19:08.633Z,42.20
2019-04-25T12:21:38.200Z,35.83
2019-04-25T12:24:07.766Z,44.87
2019-04-25T12:26:37.360Z,43.13
2019-04-25T12:29:07.001Z,45.10
2019-04-25T12:31:36.670Z,43.00
2019-04-25T12:34:06.269Z,39.93
2019-04-25T12:36:37.039Z,40.90
2019-04-25T12:39:07.233Z,43.37
2019-04-25T12:41:38.414Z,37.67
2019-04-25T12:44:21.929Z,39.33
2019-04-25T12:46:54.588Z,42.73
2019-04-25T12:49:24.428Z,40.27
2019-04-25T12:51:53.990Z,35.27
2019-04-25T12:54:23.893Z,32.07
2019-04-25T12:56:53.788Z,36.57
2019-04-25T12:59:23.341Z,43.37
2019-04-25T13:01:54.533Z,47.77
2019-04-25T13:04:24.147Z,44.37
2019-04-25T13:06:54.456Z,36.40
2019-04-25T13:09:24.069Z,40.03
2019-04-25T13:11:53.734Z,36.87
2019-04-25T13:14:23.165Z,38.87
2019-04-25T13:16:52.658Z,29.53
2019-04-25T13:19:24.618Z,40.07
2019-04-25T13:21:54.395Z,35.20
2019-04-25T13:24:24.147Z,46.03
2019-04-25T13:26:56.860Z,45.87
2019-04-25T13:29:31.264Z,39.47
2019-04-25T13:32:11.322Z,36.53
2019-04-25T13:34:43.716Z,41.97
2019-04-25T13:37:14.184Z,42.47
2019-04-25T13:39:44.245Z,41.30
2019-04-25T13:42:14.401Z,49.87
2019-04-25T13:44:44.321Z,37.70
2019-04-25T13:47:14.144Z,43.53
2019-04-25T13:49:43.791Z,35.43
2019-04-25T13:52:13.442Z,35.67
2019-04-25T13:54:43.580Z,45.93
2019-04-25T13:57:13.405Z,40.57
2019-04-25T13:59:44.134Z,37.33
2019-04-25T14:02:14.263Z,41.87
2019-04-25T14:04:44.264Z,38.53
2019-04-25T14:07:14.017Z,44.03
2019-04-25T14:09:44.710Z,33.67
2019-04-25T14:12:19.143Z,44.07
2019-04-25T14:14:50.429Z,44.03
2019-04-25T14:17:27.842Z,46.27
2019-04-25T14:20:19.443Z,38.27
2019-04-25T14:22:50.979Z,30.67
2019-04-25T14:25:20.692Z,46.40
2019-04-25T14:27:50.254Z,33.70
2019-04-25T14:30:22.299Z,43.57
2019-04-25T14:32:53.662Z,30.27
2019-04-25T14:35:39.768Z,38.43
2019-04-25T14:38:09.556Z,48.23
2019-04-25T14:52:57.316Z,39.83
2019-04-25T15:01:43.817Z,37.93
2019-04-25T15:04:05.485Z,53.10
2019-04-25T15:06:37.830Z,41.60
2019-04-25T15:09:08.229Z,47.40
2019-04-25T15:11:38.174Z,45.80
2019-04-25T15:14:07.675Z,59.20
2019-04-25T15:16:37.245Z,41.03
2019-04-25T15:19:07.015Z,59.57
2019-04-25T15:21:36.536Z,54.63
2019-04-25T15:24:06.213Z,39.57
2019-04-25T15:26:35.884Z,41.50
2019-04-25T15:29:05.628Z,51.37
2019-04-25T15:31:36.772Z,48.40
2019-04-25T15:34:07.491Z,44.63
2019-04-25T15:36:38.851Z,53.77
2019-04-25T15:39:18.850Z,45.10
2019-04-25T15:41:50.071Z,52.60
2019-04-25T15:44:21.304Z,51.67
2019-04-25T15:46:52.591Z,54.00
2019-04-25T15:49:31.255Z,53.23
2019-04-25T15:52:00.915Z,47.70
2019-04-25T15:54:31.717Z,49.90
2019-04-25T15:57:11.228Z,49.30
2019-04-25T15:59:52.943Z,60.87
2019-04-25T16:04:17.103Z,55.50
2019-04-25T16:05:35.592Z,48.80
2019-04-25T16:11:21.593Z,50.13
2019-04-25T16:13:42.334Z,50.97
2019-04-25T16:16:14.042Z,49.77
2019-04-25T16:18:46.897Z,71.03
2019-04-25T16:21:16.905Z,58.03
2019-04-25T16:23:49.815Z,60.97
2019-04-25T16:26:19.628Z,62.70
2019-04-25T16:28:51.273Z,52.87
2019-04-25T16:31:22.528Z,51.67
2019-04-25T16:33:52.029Z,47.30
2019-04-25T16:36:21.700Z,55.57
2019-04-25T16:38:51.337Z,34.10
2019-04-25T16:41:21.677Z,42.07
2019-04-25T16:43:52.968Z,38.30
2019-04-25T16:46:23.439Z,39.50
2019-04-25T16:48:53.031Z,38.47
2019-04-25T16:51:37.923Z,43.23
2019-04-25T16:54:09.240Z,48.03
2019-04-25T16:56:43.566Z,36.77
2019-04-25T16:59:14.911Z,37.30
2019-04-25T17:01:44.849Z,32.30
2019-04-25T17:04:14.726Z,31.63
2019-04-25T17:06:45.607Z,34.17
2019-04-25T17:09:15.428Z,33.20
2019-04-25T17:11:45.078Z,33.47
2019-04-25T17:14:16.263Z,42.87
2019-04-25T17:17:06.631Z,40.50
2019-04-25T17:19:40.914Z,44.57
2019-04-25T17:22:10.491Z,45.37
2019-04-25T17:24:41.172Z,42.33
2019-04-25T17:27:11.100Z,42.13
2019-04-25T17:29:40.526Z,37.33
2019-04-25T17:32:18.786Z,38.17
2019-04-25T17:35:04.646Z,34.30
2019-04-25T17:37:36.434Z,37.97
2019-04-25T17:40:08.343Z,37.03
2019-04-25T17:42:38.897Z,33.37
2019-04-25T17:45:10.756Z,37.67
2019-04-25T17:47:51.750Z,36.57
2019-04-25T17:50:11.698Z,35.80
2019-04-25T17:52:41.239Z,33.60
2019-04-25T17:55:11.508Z,44.33
2019-04-25T17:57:42.034Z,42.57
2019-04-25T18:00:28.345Z,39.63
2019-04-25T18:03:00.782Z,37.93
2019-04-25T18:05:30.423Z,41.57
2019-04-25T18:07:59.973Z,43.87
2019-04-25T18:10:29.517Z,39.00
2019-04-25T18:12:59.043Z,37.47
2019-04-25T18:15:30.227Z,33.50
2019-04-25T18:18:01.196Z,47.40
2019-04-25T18:20:32.504Z,38.53
2019-04-25T18:23:18.602Z,43.63
2019-04-25T18:26:06.062Z,37.00
2019-04-25T18:28:40.056Z,36.23
2019-04-25T18:31:09.653Z,36.57
2019-04-25T18:33:39.442Z,44.37
2019-04-25T18:36:16.638Z,41.50
2019-04-25T18:38:47.702Z,27.80
2019-04-25T18:41:18.946Z,32.57
2019-04-25T18:43:53.073Z,36.30
2019-04-25T18:46:24.313Z,39.07
2019-04-25T18:48:53.894Z,39.73
2019-04-25T18:51:23.520Z,32.40
2019-04-25T18:53:57.728Z,40.63
2019-04-25T18:56:28.920Z,42.07
2019-04-25T18:59:05.917Z,36.20
2019-04-25T19:01:53.310Z,44.07
2019-04-25T19:04:27.664Z,32.73
2019-04-25T19:06:58.337Z,36.10
2019-04-25T19:09:28.108Z,34.83
2019-04-25T19:11:57.745Z,38.80
2019-04-25T19:14:27.434Z,39.00
2019-04-25T19:16:57.478Z,42.73
2019-04-25T19:19:27.073Z,36.40
2019-04-25T19:21:58.764Z,43.87
2019-04-25T19:24:28.180Z,32.63
2019-04-25T19:26:57.719Z,34.47
2019-04-25T19:29:27.363Z,40.47
2019-04-25T19:31:56.996Z,32.00
2019-04-25T19:34:26.519Z,34.37
2019-04-25T19:36:56.170Z,37.47
2019-04-25T19:39:27.521Z,28.60
2019-04-25T19:42:16.851Z,33.57
2019-04-25T19:44:47.199Z,36.03
2019-04-25T19:47:17.219Z,47.10
2019-04-25T19:49:48.147Z,45.37
2019-04-25T19:58:11.572Z,33.37
2019-04-25T20:00:41.556Z,32.50
2019-04-25T20:03:20.040Z,35.00
2019-04-25T20:05:51.280Z,30.87
2019-04-25T20:08:28.439Z,39.77
2019-04-25T20:10:59.679Z,33.77
2019-04-25T20:13:29.270Z,35.63
2019-04-25T20:16:00.140Z,37.83
2019-04-25T20:18:30.872Z,33.37
2019-04-25T20:21:00.551Z,37.20
2019-04-25T20:23:30.464Z,37.17
2019-04-25T20:26:00.135Z,35.13
2019-04-25T20:28:31.149Z,35.37
2019-04-25T20:31:02.266Z,38.50
2019-04-25T20:33:31.795Z,41.00
2019-04-25T20:36:01.365Z,29.97
2019-04-25T20:38:30.797Z,33.90
2019-04-25T20:41:00.430Z,34.27
2019-04-25T20:43:30.116Z,36.67
2019-04-25T20:45:59.950Z,45.03
2019-04-25T20:48:29.475Z,38.57
2019-04-25T20:50:59.119Z,35.13
2019-04-25T20:53:28.576Z,33.13
2019-04-25T20:55:58.239Z,31.80
2019-04-25T20:58:27.674Z,46.30
2019-04-25T21:00:58.026Z,36.00
2019-04-25T21:03:27.399Z,39.10
2019-04-25T21:05:58.740Z,32.70
2019-04-25T21:08:28.248Z,31.70
2019-04-25T21:10:57.912Z,40.17
2019-04-25T21:13:32.646Z,41.23
2019-04-25T21:16:15.817Z,32.63
2019-04-25T21:18:53.181Z,36.70
2019-04-25T21:21:22.801Z,35.37
2019-04-25T21:23:53.022Z,47.93
2019-04-25T21:26:22.668Z,32.87
2019-04-25T21:28:52.267Z,35.60
2019-04-25T21:31:22.901Z,34.97
2019-04-25T21:33:52.824Z,34.57
2019-04-25T21:36:22.552Z,32.17
2019-04-25T21:38:53.599Z,36.47
2019-04-25T21:41:41.553Z,36.63
2019-04-25T21:44:11.402Z,35.00
2019-04-25T21:46:40.902Z,34.03
2019-04-25T21:49:10.963Z,39.50
2019-04-25T21:51:40.520Z,26.17
2019-04-25T21:54:10.060Z,36.57
2019-04-25T21:56:40.021Z,38.57
2019-04-25T21:59:09.966Z,40.93
2019-04-25T22:01:43.601Z,33.47
2019-04-25T22:04:13.476Z,39.63
2019-04-25T22:06:43.382Z,37.47
2019-04-25T22:09:22.833Z,33.10
2019-04-25T22:11:52.678Z,29.67
2019-04-25T22:14:22.489Z,35.00
2019-04-25T22:16:52.377Z,34.50
2019-04-25T22:19:22.226Z,42.30
2019-04-25T22:21:52.096Z,42.57
2019-04-25T22:24:21.989Z,30.47
2019-04-25T22:26:53.364Z,34.90
2019-04-25T22:29:23.103Z,32.60
2019-04-25T22:31:59.272Z,33.47
2019-04-25T22:34:31.101Z,30.33
2019-04-25T22:37:02.116Z,38.07
2019-04-25T22:39:31.743Z,31.30
2019-04-25T22:42:01.929Z,32.27
2019-04-25T22:44:33.019Z,31.73
2019-04-25T22:47:02.762Z,34.47
2019-04-25T22:49:32.292Z,31.47
2019-04-25T22:52:03.293Z,33.13
2019-04-25T22:54:32.909Z,31.37
2019-04-25T22:57:02.644Z,35.83
2019-04-25T22:59:32.537Z,28.63
2019-04-25T23:02:18.732Z,40.03
2019-04-25T23:05:09.024Z,34.30
2019-04-25T23:07:34.475Z,32.97
2019-04-25T23:10:08.366Z,35.17
2019-04-25T23:12:38.332Z,26.43
2019-04-25T23:15:08.796Z,35.27
2019-04-25T23:17:38.421Z,41.67
2019-04-25T23:20:08.256Z,29.87
2019-04-25T23:22:38.001Z,38.57
2019-04-25T23:25:09.977Z,26.60
2019-04-25T23:27:41.348Z,27.37
2019-04-25T23:30:12.826Z,30.33
2019-04-25T23:32:42.371Z,30.87
2019-04-25T23:35:24.270Z,33.50
2019-04-25T23:37:43.320Z,27.87
2019-04-25T23:40:13.720Z,32.40
2019-04-25T23:42:43.428Z,40.60
2019-04-25T23:45:13.136Z,29.57
2019-04-25T23:47:42.977Z,32.27
2019-04-25T23:50:12.891Z,33.03
2019-04-25T23:52:42.366Z,31.33
2019-04-25T23:55:12.825Z,29.20
2019-04-25T23:57:42.636Z,31.73
